Felix-Klein-Gymnasium, Gttingen, 150m NN
Donnes mto: Actuelle Sonntag, 20.05.2018 17:15
Date Horaire Temp. E. Hum. E. P.atmo. Pluie Vent Direction Direction Ensoleilleme P. de rose Temp au vent Rafales
20.05.2018 17:15 22,2 C 37 % 1018,7 hPa 0,0 mm 14,0 km/h (3 Bft) N 352 15 min 6,8 C 22,2 C 30,6 km/h (5 Bft)
20.05.2018 17:00 22,4 C 37 % 1018,9 hPa 0,0 mm 10,4 km/h (2 Bft) N-NO 337 15 min 7,0 C 22,4 C 27,4 km/h (4 Bft)
20.05.2018 16:45 22,7 C 36 % 1018,9 hPa 0,0 mm 8,7 km/h (2 Bft) N-NE 12 15 min 6,9 C 22,7 C 25,7 km/h (4 Bft)
20.05.2018 16:30 22,7 C 37 % 1019,0 hPa 0,0 mm 9,9 km/h (2 Bft) NO 326 15 min 7,3 C 22,7 C 27,4 km/h (4 Bft)
20.05.2018 16:15 22,8 C 36 % 1019,1 hPa 0,0 mm 10,6 km/h (2 Bft) N-NE 17 15 min 6,9 C 22,8 C 27,4 km/h (4 Bft)
20.05.2018 16:00 22,7 C 37 % 1019,2 hPa 0,0 mm 10,6 km/h (2 Bft) N 7 15 min 7,3 C 22,7 C 29,0 km/h (5 Bft)
20.05.2018 15:45 22,6 C 38 % 1019,3 hPa 0,0 mm 10,0 km/h (2 Bft) N-NO 340 15 min 7,6 C 22,6 C 24,1 km/h (4 Bft)
20.05.2018 15:30 22,7 C 38 % 1019,4 hPa 0,0 mm 10,4 km/h (2 Bft) N 7 15 min 7,6 C 22,7 C 24,1 km/h (4 Bft)
20.05.2018 15:15 22,9 C 37 % 1019,4 hPa 0,0 mm 5,4 km/h (1 Bft) N 7 15 min 7,4 C 22,9 C 20,9 km/h (4 Bft)
20.05.2018 15:00 22,8 C 39 % 1019,5 hPa 0,0 mm 7,4 km/h (2 Bft) N-NO 336 0 min 8,1 C 22,8 C 20,9 km/h (4 Bft)
20.05.2018 14:45 22,9 C 38 % 1019,6 hPa 0,0 mm 8,0 km/h (2 Bft) N-NO 336 15 min 7,8 C 22,9 C 25,7 km/h (4 Bft)
20.05.2018 14:30 22,7 C 39 % 1019,8 hPa 0,0 mm 3,7 km/h (1 Bft) N-NE 30 15 min 8,0 C 22,7 C 17,7 km/h (3 Bft)
20.05.2018 14:15 22,8 C 39 % 1019,9 hPa 0,0 mm 6,4 km/h (2 Bft) O-NO 284 0 min 8,1 C 22,8 C 32,2 km/h (5 Bft)
20.05.2018 14:00 22,8 C 38 % 1020,0 hPa 0,0 mm 5,8 km/h (2 Bft) S 184 15 min 7,7 C 22,8 C 14,5 km/h (3 Bft)
20.05.2018 13:45 22,7 C 38 % 1020,1 hPa 0,0 mm 3,6 km/h (1 Bft) O 275 15 min 7,6 C 22,7 C 14,5 km/h (3 Bft)
20.05.2018 13:30 22,2 C 37 % 1020,3 hPa 0,0 mm 7,0 km/h (2 Bft) NE 38 15 min 6,8 C 22,2 C 20,9 km/h (4 Bft)
20.05.2018 13:15 21,3 C 38 % 1020,3 hPa 0,0 mm 10,2 km/h (2 Bft) N-NO 329 15 min 6,4 C 21,3 C 24,1 km/h (4 Bft)
20.05.2018 13:00 21,8 C 37 % 1020,5 hPa 0,0 mm 8,6 km/h (2 Bft) N 359 15 min 6,5 C 21,8 C 20,9 km/h (4 Bft)
20.05.2018 12:45 21,5 C 37 % 1020,6 hPa 0,0 mm 9,0 km/h (2 Bft) N-NO 338 15 min 6,2 C 21,5 C 20,9 km/h (4 Bft)
20.05.2018 12:30 21,3 C 40 % 1020,7 hPa 0,0 mm 6,8 km/h (2 Bft) NE 36 15 min 7,1 C 21,3 C 20,9 km/h (4 Bft)
20.05.2018 12:15 21,0 C 40 % 1020,9 hPa 0,0 mm 9,2 km/h (2 Bft) N-NE 32 15 min 6,9 C 21,0 C 24,1 km/h (4 Bft)
20.05.2018 12:00 20,4 C 42 % 1021,0 hPa 0,0 mm 10,4 km/h (2 Bft) N 9 15 min 7,1 C 20,4 C 24,1 km/h (4 Bft)
20.05.2018 11:45 20,1 C 43 % 1021,2 hPa 0,0 mm 9,4 km/h (2 Bft) O-NO 292 15 min 7,1 C 20,1 C 17,7 km/h (3 Bft)
20.05.2018 11:30 19,5 C 43 % 1021,2 hPa 0,0 mm 8,1 km/h (2 Bft) N 11 15 min 6,6 C 19,5 C 20,9 km/h (4 Bft)
20.05.2018 11:15 19,8 C 42 % 1021,2 hPa 0,0 mm 7,3 km/h (2 Bft) O-NO 285 15 min 6,5 C 19,8 C 17,7 km/h (3 Bft)
20.05.2018 11:00 19,3 C 45 % 1021,3 hPa 0,0 mm 4,2 km/h (1 Bft) O-NO 285 15 min 7,1 C 19,3 C 12,9 km/h (3 Bft)
20.05.2018 10:45 18,9 C 46 % 1021,3 hPa 0,0 mm 4,1 km/h (1 Bft) SO 221 15 min 7,0 C 18,9 C 12,9 km/h (3 Bft)
20.05.2018 10:30 18,6 C 47 % 1021,4 hPa 0,0 mm 2,1 km/h (1 Bft) NO 309 15 min 7,1 C 18,6 C 11,3 km/h (2 Bft)
20.05.2018 10:15 18,1 C 52 % 1021,4 hPa 0,0 mm 1,2 km/h (1 Bft) S-SO 213 15 min 8,1 C 18,1 C 9,7 km/h (2 Bft)
20.05.2018 10:00 17,0 C 57 % 1021,4 hPa 0,0 mm 0,8 km/h (0 Bft) O-SO 240 15 min 8,4 C 17,0 C 6,4 km/h (2 Bft)
20.05.2018 09:45 15,7 C 64 % 1021,5 hPa 0,0 mm 0,4 km/h (0 Bft) S-SO 195 15 min 8,9 C 15,7 C 4,8 km/h (1 Bft)
20.05.2018 09:30 14,8 C 69 % 1021,6 hPa 0,0 mm 1,5 km/h (1 Bft) S 191 15 min 9,2 C 14,8 C 8,0 km/h (2 Bft)
20.05.2018 09:15 13,5 C 73 % 1021,6 hPa 0,0 mm 0,5 km/h (0 Bft) S-SO 195 15 min 8,8 C 13,5 C 4,8 km/h (1 Bft)
20.05.2018 09:00 12,9 C 77 % 1021,7 hPa 0,0 mm 0,0 km/h (0 Bft) S-SE 149 15 min 9,0 C 12,9 C 3,2 km/h (1 Bft)
20.05.2018 08:45 12,4 C 79 % 1021,7 hPa 0,0 mm 0,0 km/h (0 Bft) E-NE 75 15 min 8,9 C 12,4 C 1,6 km/h (1 Bft)
20.05.2018 08:30 11,3 C 83 % 1021,7 hPa 0,0 mm 0,0 km/h (0 Bft) E-NE 69 15 min 8,5 C 11,3 C 1,6 km/h (1 Bft)
20.05.2018 08:15 11,2 C 84 % 1021,8 hPa 0,0 mm 0,1 km/h (0 Bft) NE 51 0 min 8,6 C 11,2 C 3,2 km/h (1 Bft)
20.05.2018 08:00 10,2 C 86 % 1021,8 hPa 0,0 mm 0,1 km/h (0 Bft) E-NE 64 0 min 8,0 C 10,2 C 4,8 km/h (1 Bft)
20.05.2018 07:45 9,9 C 86 % 1021,8 hPa 0,0 mm 0,0 km/h (0 Bft) S-SE 147 15 min 7,7 C 9,9 C 0,0 km/h (0 Bft)
20.05.2018 07:30 8,8 C 92 % 1021,8 hPa 0,0 mm 0,1 km/h (0 Bft) SE 146 15 min 7,6 C 8,8 C 3,2 km/h (1 Bft)
20.05.2018 07:15 8,3 C 93 % 1021,6 hPa 0,0 mm 0,0 km/h (0 Bft) SE 134 15 min 7,2 C 8,3 C 0,0 km/h (0 Bft)
20.05.2018 07:00 7,7 C 94 % 1021,5 hPa 0,0 mm 0,0 km/h (0 Bft) SE 134 0 min 6,8 C 7,7 C 0,0 km/h (0 Bft)
20.05.2018 06:45 7,3 C 93 % 1021,5 hPa 0,0 mm 0,0 km/h (0 Bft) SE 134 0 min 6,2 C 7,3 C 0,0 km/h (0 Bft)
20.05.2018 06:30 6,9 C 93 % 1021,4 hPa 0,0 mm 0,0 km/h (0 Bft) SE 134 0 min 5,8 C 6,9 C 0,0 km/h (0 Bft)
20.05.2018 06:15 6,7 C 93 % 1021,3 hPa 0,0 mm 0,0 km/h (0 Bft) SE 134 0 min 5,6 C 6,7 C 0,0 km/h (0 Bft)
20.05.2018 06:00 6,7 C 93 % 1021,2 hPa 0,0 mm 0,0 km/h (0 Bft) SE 134 0 min 5,6 C 6,7 C 0,0 km/h (0 Bft)
20.05.2018 05:45 6,6 C 92 % 1021,1 hPa 0,0 mm 0,0 km/h (0 Bft) SE 134 0 min 5,4 C 6,6 C 0,0 km/h (0 Bft)
20.05.2018 05:30 6,7 C 92 % 1021,0 hPa 0,0 mm 0,0 km/h (0 Bft) SE 134 0 min 5,5 C 6,7 C 0,0 km/h (0 Bft)
20.05.2018 05:15 6,8 C 92 % 1021,0 hPa 0,0 mm 0,0 km/h (0 Bft) SE 134 0 min 5,6 C 6,8 C 1,6 km/h (1 Bft)
20.05.2018 05:00 7,1 C 92 % 1020,8 hPa 0,0 mm 0,0 km/h (0 Bft) SE 135 0 min 5,9 C 7,1 C 1,6 km/h (1 Bft)
20.05.2018 04:45 7,1 C 92 % 1020,7 hPa 0,0 mm 0,0 km/h (0 Bft) SE 135 0 min 5,9 C 7,1 C 0,0 km/h (0 Bft)
20.05.2018 04:30 7,2 C 91 % 1020,8 hPa 0,0 mm 0,0 km/h (0 Bft) SE 135 0 min 5,8 C 7,2 C 0,0 km/h (0 Bft)
20.05.2018 04:15 7,5 C 91 % 1020,8 hPa 0,0 mm 0,0 km/h (0 Bft) SE 135 0 min 6,1 C 7,5 C 0,0 km/h (0 Bft)
20.05.2018 04:00 7,8 C 91 % 1021,0 hPa 0,0 mm 0,0 km/h (0 Bft) SE 135 0 min 6,4 C 7,8 C 1,6 km/h (1 Bft)
20.05.2018 03:45 8,1 C 91 % 1020,9 hPa 0,0 mm 0,0 km/h (0 Bft) SE 135 0 min 6,7 C 8,1 C 0,0 km/h (0 Bft)
20.05.2018 03:30 8,2 C 90 % 1021,0 hPa 0,0 mm 0,0 km/h (0 Bft) SE 136 0 min 6,7 C 8,2 C 0,0 km/h (0 Bft)
20.05.2018 03:15 8,3 C 90 % 1020,9 hPa 0,0 mm 0,0 km/h (0 Bft) SE 136 0 min 6,8 C 8,3 C 0,0 km/h (0 Bft)
20.05.2018 03:00 8,3 C 90 % 1021,0 hPa 0,0 mm 0,0 km/h (0 Bft) SE 136 0 min 6,8 C 8,3 C 0,0 km/h (0 Bft)
20.05.2018 02:45 8,4 C 89 % 1021,0 hPa 0,0 mm 0,0 km/h (0 Bft) SE 135 0 min 6,7 C 8,4 C 0,0 km/h (0 Bft)
20.05.2018 02:30 8,7 C 88 % 1021,0 hPa 0,0 mm 0,0 km/h (0 Bft) SE 135 0 min 6,8 C 8,7 C 1,6 km/h (1 Bft)
20.05.2018 02:15 9,0 C 88 % 1020,9 hPa 0,0 mm 0,0 km/h (0 Bft) SE 136 0 min 7,1 C 9,0 C 0,0 km/h (0 Bft)
20.05.2018 02:00 9,3 C 87 % 1020,9 hPa 0,0 mm 0,0 km/h (0 Bft) SE 136 0 min 7,2 C 9,3 C 1,6 km/h (1 Bft)
20.05.2018 01:45 9,7 C 86 % 1020,9 hPa 0,0 mm 0,0 km/h (0 Bft) SE 136 0 min 7,5 C 9,7 C 0,0 km/h (0 Bft)
20.05.2018 01:30 10,0 C 86 % 1020,7 hPa 0,0 mm 0,0 km/h (0 Bft) SE 136 0 min 7,8 C 10,0 C 0,0 km/h (0 Bft)
20.05.2018 01:15 10,1 C 86 % 1020,7 hPa 0,0 mm 0,0 km/h (0 Bft) SE 136 0 min 7,9 C 10,1 C 0,0 km/h (0 Bft)
20.05.2018 01:00 10,2 C 84 % 1020,7 hPa 0,0 mm 0,0 km/h (0 Bft) SE 136 0 min 7,6 C 10,2 C 0,0 km/h (0 Bft)
20.05.2018 00:45 10,5 C 83 % 1020,7 hPa 0,0 mm 0,0 km/h (0 Bft) SE 136 0 min 7,7 C 10,5 C 3,2 km/h (1 Bft)
20.05.2018 00:30 11,1 C 81 % 1020,7 hPa 0,0 mm 0,1 km/h (0 Bft) SE 142 0 min 8,0 C 11,1 C 3,2 km/h (1 Bft)
20.05.2018 00:15 12,0 C 78 % 1020,7 hPa 0,0 mm 0,0 km/h (0 Bft) S-SE 152 0 min 8,3 C 12,0 C 3,2 km/h (1 Bft)
20.05.2018 00:00 12,8 C 75 % 1020,5 hPa 0,0 mm 0,0 km/h (0 Bft) S 178 0 min 8,5 C 12,8 C 0,0 km/h (0 Bft)
19.05.2018 22:45 14,0 C 71 % 1020,4 hPa 0,0 mm 0,0 km/h (0 Bft) S-SE 168 0 min 8,8 C 14,0 C 1,6 km/h (1 Bft)
19.05.2018 22:30 14,2 C 70 % 1020,3 hPa 0,0 mm 3,0 km/h (1 Bft) S-SE 167 0 min 8,8 C 14,2 C 8,0 km/h (2 Bft)
19.05.2018 22:15 14,4 C 69 % 1020,2 hPa 0,0 mm 2,5 km/h (1 Bft) E-SE 111 0 min 8,8 C 14,4 C 9,7 km/h (2 Bft)
19.05.2018 22:00 15,0 C 66 % 1019,8 hPa 0,0 mm 1,3 km/h (1 Bft) SO 235 0 min 8,7 C 15,0 C 8,0 km/h (2 Bft)
19.05.2018 21:45 15,2 C 66 % 1019,8 hPa 0,0 mm 2,9 km/h (1 Bft) SO 236 0 min 8,9 C 15,2 C 8,0 km/h (2 Bft)
19.05.2018 21:30 15,4 C 65 % 1019,6 hPa 0,0 mm 3,2 km/h (1 Bft) SO 228 0 min 8,9 C 15,4 C 8,0 km/h (2 Bft)
19.05.2018 21:15 15,6 C 65 % 1019,4 hPa 0,0 mm 5,8 km/h (2 Bft) O-SO 243 0 min 9,0 C 15,6 C 12,9 km/h (3 Bft)
19.05.2018 21:00 15,8 C 63 % 1019,3 hPa 0,0 mm 5,6 km/h (1 Bft) O 271 0 min 8,8 C 15,8 C 14,5 km/h (3 Bft)
19.05.2018 20:45 16,1 C 63 % 1019,2 hPa 0,0 mm 4,6 km/h (1 Bft) O-SO 251 0 min 9,1 C 16,1 C 11,3 km/h (2 Bft)
19.05.2018 20:30 16,3 C 61 % 1019,1 hPa 0,0 mm 8,1 km/h (2 Bft) O 275 0 min 8,8 C 16,3 C 14,5 km/h (3 Bft)
19.05.2018 20:15 16,7 C 59 % 1019,1 hPa 0,0 mm 6,9 km/h (2 Bft) O-SO 257 0 min 8,6 C 16,7 C 16,1 km/h (3 Bft)
19.05.2018 20:00 16,9 C 57 % 1019,0 hPa 0,0 mm 5,3 km/h (1 Bft) O 274 15 min 8,3 C 16,9 C 14,5 km/h (3 Bft)
19.05.2018 19:45 16,9 C 57 % 1018,8 hPa 0,0 mm 6,6 km/h (2 Bft) O 263 15 min 8,3 C 16,9 C 17,7 km/h (3 Bft)
19.05.2018 19:30 17,1 C 56 % 1018,8 hPa 0,0 mm 5,9 km/h (2 Bft) O-NO 285 15 min 8,3 C 17,1 C 14,5 km/h (3 Bft)
19.05.2018 19:15 17,4 C 53 % 1018,8 hPa 0,0 mm 4,6 km/h (1 Bft) O-NO 284 15 min 7,7 C 17,4 C 14,5 km/h (3 Bft)
19.05.2018 19:00 17,5 C 51 % 1018,8 hPa 0,0 mm 0,6 km/h (0 Bft) O 274 15 min 7,3 C 17,5 C 6,4 km/h (2 Bft)
19.05.2018 18:45 17,4 C 51 % 1018,7 hPa 0,0 mm 4,0 km/h (1 Bft) NO 309 15 min 7,2 C 17,4 C 14,5 km/h (3 Bft)
19.05.2018 18:30 17,8 C 52 % 1018,7 hPa 0,0 mm 5,1 km/h (1 Bft) NO 309 0 min 7,8 C 17,8 C 16,1 km/h (3 Bft)
19.05.2018 18:15 17,6 C 51 % 1018,7 hPa 0,0 mm 1,5 km/h (1 Bft) O-NO 291 15 min 7,3 C 17,6 C 11,3 km/h (2 Bft)
19.05.2018 18:00 17,7 C 50 % 1018,8 hPa 0,0 mm 2,9 km/h (1 Bft) O-NO 297 0 min 7,1 C 17,7 C 11,3 km/h (2 Bft)
_ Min-Heure 05:45 16:15 18:15 - 22:45 - - - 05:45 05:45 00:00
Minimum _ 6,6 C 36 % 1018,7 hPa - 0,0 km/h (0 Bft) - - - 5,4 C 6,6 C 0,0 km/h (0 Bft)
_ Max-Heure 14:45 07:00 07:30 18:00 17:15 - - 18:15 09:30 14:45 14:15
Maximum _ 22,9 C 94 % 1021,8 hPa 0,0 mm 14,0 km/h
N (3 Bft)
- - 15 min 9,2 C 22,9 C 32,2 km/h
O-NO (5 Bft)
Moyenne _ 15,0 C 64 % 1020,3 hPa #0,0 mm 3,2 km/h (1 Bft) O-NO - #9:15 h 7,5 C 15,0 C 9,8 km/h (2 Bft)